createdAt,value
2019-01-25T00:04:38.618Z,-1.20
2019-01-25T00:10:40.902Z,-1.20
2019-01-25T00:16:43.175Z,-1.20
2019-01-25T00:22:45.382Z,-1.20
2019-01-25T00:28:47.729Z,-1.20
2019-01-25T00:34:50.163Z,-1.20
2019-01-25T00:40:52.410Z,-1.20
2019-01-25T00:46:54.831Z,-1.10
2019-01-25T00:52:57.215Z,-1.20
2019-01-25T00:58:59.537Z,-1.20
2019-01-25T01:05:01.848Z,-1.20
2019-01-25T01:11:04.310Z,-1.10
2019-01-25T01:17:06.410Z,-1.10
2019-01-25T01:23:09.359Z,-1.10
2019-01-25T01:29:11.621Z,-1.10
2019-01-25T01:35:13.959Z,-1.10
2019-01-25T01:41:18.242Z,-1.10
2019-01-25T01:47:24.737Z,-1.20
2019-01-25T01:53:28.379Z,-1.30
2019-01-25T01:59:30.876Z,-1.40
2019-01-25T02:05:33.055Z,-1.40
2019-01-25T02:11:36.378Z,-1.50
2019-01-25T02:17:38.510Z,-1.40
2019-01-25T02:23:40.696Z,-1.40
2019-01-25T02:29:42.979Z,-1.40
2019-01-25T02:35:45.235Z,-1.50
2019-01-25T02:41:49.256Z,-1.60
2019-01-25T02:47:51.773Z,-1.70
2019-01-25T02:53:55.284Z,-1.80
2019-01-25T02:59:57.563Z,-1.80
2019-01-25T03:05:59.941Z,-1.90
2019-01-25T03:12:02.195Z,-1.90
2019-01-25T03:18:04.575Z,-2.00
2019-01-25T03:24:06.751Z,-2.00
2019-01-25T03:30:10.753Z,-2.10
2019-01-25T03:36:14.920Z,-2.30
2019-01-25T03:42:18.994Z,-2.30
2019-01-25T03:48:21.102Z,-2.30
2019-01-25T03:54:25.341Z,-2.40
2019-01-25T04:00:28.509Z,-2.50
2019-01-25T04:06:30.874Z,-2.60
2019-01-25T04:12:34.273Z,-2.70
2019-01-25T04:18:36.455Z,-2.80
2019-01-25T04:24:38.642Z,-2.90
2019-01-25T04:30:41.074Z,-3.10
2019-01-25T04:36:43.376Z,-3.10
2019-01-25T04:42:47.365Z,-3.00
2019-01-25T04:48:50.584Z,-2.90
2019-01-25T04:54:53.005Z,-2.90
2019-01-25T05:00:55.296Z,-3.00
2019-01-25T05:06:58.063Z,-2.90
2019-01-25T05:13:00.223Z,-2.80
2019-01-25T05:19:02.339Z,-2.80
2019-01-25T05:25:04.583Z,-2.80
2019-01-25T05:31:07.140Z,-2.80
2019-01-25T05:37:10.665Z,-2.80
2019-01-25T05:43:12.995Z,-2.80
2019-01-25T05:49:22.444Z,-3.00
2019-01-25T05:55:24.639Z,-2.90
2019-01-25T06:01:26.939Z,-2.80
2019-01-25T06:07:29.185Z,-2.80
2019-01-25T06:13:31.495Z,-2.80
2019-01-25T06:19:37.229Z,-2.70
2019-01-25T06:25:40.398Z,-2.70
2019-01-25T06:31:42.755Z,-2.70
2019-01-25T06:37:46.007Z,-2.70
2019-01-25T06:43:48.366Z,-2.60
2019-01-25T06:49:54.289Z,-2.70
2019-01-25T06:55:56.747Z,-2.60
2019-01-25T07:02:02.799Z,-2.60
2019-01-25T07:08:04.955Z,-2.40
2019-01-25T07:14:08.361Z,-2.40
2019-01-25T07:20:11.742Z,-2.40
2019-01-25T07:26:14.056Z,-2.40
2019-01-25T07:32:16.427Z,-2.40
2019-01-25T07:38:18.940Z,-2.40
2019-01-25T07:44:21.276Z,-2.40
2019-01-25T07:50:25.669Z,-2.30
2019-01-25T07:56:28.077Z,-2.40
2019-01-25T08:02:30.218Z,-2.40
2019-01-25T08:08:32.664Z,-2.40
2019-01-25T08:14:34.968Z,-2.30
2019-01-25T08:20:37.118Z,-2.30
2019-01-25T08:26:39.549Z,-2.20
2019-01-25T08:32:41.794Z,-2.20
2019-01-25T08:38:44.155Z,-2.10
2019-01-25T08:44:46.680Z,-2.20
2019-01-25T08:50:48.874Z,-2.10
2019-01-25T08:56:53.209Z,-2.00
2019-01-25T09:02:55.422Z,-1.90
2019-01-25T09:08:57.913Z,-2.00
2019-01-25T09:15:00.283Z,-1.90
2019-01-25T09:21:02.609Z,-1.80
2019-01-25T09:27:04.884Z,-1.80
2019-01-25T09:33:07.052Z,-1.70
2019-01-25T09:39:28.603Z,-1.70
2019-01-25T09:45:30.831Z,-1.60
2019-01-25T09:51:34.206Z,-1.60
2019-01-25T09:57:38.519Z,-1.50
2019-01-25T10:03:40.798Z,-1.50
2019-01-25T10:09:43.759Z,-1.50
2019-01-25T10:15:45.983Z,-1.40
2019-01-25T10:21:48.155Z,-1.30
2019-01-25T10:27:50.350Z,-1.30
2019-01-25T10:33:52.693Z,-1.30
2019-01-25T10:39:54.911Z,-1.20
2019-01-25T10:45:57.210Z,-1.10
2019-01-25T10:51:59.346Z,-1.10
2019-01-25T10:58:03.191Z,-1.10
2019-01-25T11:04:11.632Z,-1.00
2019-01-25T11:10:11.687Z,-1.00
2019-01-25T11:16:14.020Z,-1.20
2019-01-25T11:22:17.323Z,-1.10
2019-01-25T11:28:20.449Z,-1.00
2019-01-25T11:34:22.610Z,-0.90
2019-01-25T11:40:27.127Z,-0.80
2019-01-25T11:46:29.526Z,-0.80
2019-01-25T11:52:31.743Z,-0.80
2019-01-25T11:58:33.895Z,-0.70
2019-01-25T12:04:38.537Z,-0.70
2019-01-25T12:10:40.795Z,-0.90
2019-01-25T12:16:43.090Z,-0.80
2019-01-25T12:22:45.210Z,-0.70
2019-01-25T12:28:48.996Z,-0.70
2019-01-25T12:34:52.335Z,-0.80
2019-01-25T12:40:54.492Z,-0.80
2019-01-25T12:46:56.727Z,-0.70
2019-01-25T12:53:00.134Z,-0.70
2019-01-25T12:59:02.367Z,-0.80
2019-01-25T13:05:08.094Z,-0.80
2019-01-25T13:11:29.641Z,-0.80
2019-01-25T13:17:31.755Z,-0.80
2019-01-25T13:23:34.171Z,-0.80
2019-01-25T13:29:36.525Z,-0.80
2019-01-25T13:35:38.675Z,-0.80
2019-01-25T13:41:40.959Z,-0.80
2019-01-25T13:47:43.363Z,-0.70
2019-01-25T13:53:46.743Z,-0.60
2019-01-25T13:59:49.828Z,-0.60
2019-01-25T14:05:54.111Z,-0.60
2019-01-25T14:11:56.793Z,-0.60
2019-01-25T14:17:59.054Z,-0.60
2019-01-25T14:24:01.491Z,-0.60
2019-01-25T14:30:09.842Z,-0.60
2019-01-25T14:36:11.961Z,-0.60
2019-01-25T14:42:14.475Z,-0.50
2019-01-25T14:48:16.818Z,-0.60
2019-01-25T14:54:19.086Z,-0.60
2019-01-25T15:00:21.264Z,-0.60
2019-01-25T15:06:26.643Z,-0.60
2019-01-25T15:12:30.934Z,-0.70
2019-01-25T15:18:33.214Z,-0.60
2019-01-25T15:24:35.662Z,-0.60
2019-01-25T15:30:39.251Z,-0.70
2019-01-25T15:36:41.519Z,-0.70
2019-01-25T15:42:44.128Z,-0.80
2019-01-25T15:48:46.806Z,-0.80
2019-01-25T15:54:49.029Z,-0.90
2019-01-25T16:00:51.231Z,-0.90
2019-01-25T16:06:56.030Z,-1.00
2019-01-25T16:12:58.379Z,-1.00
2019-01-25T16:19:00.611Z,-1.10
2019-01-25T16:25:03.914Z,-1.20
2019-01-25T16:31:07.417Z,-1.20
2019-01-25T16:37:09.530Z,-1.30
2019-01-25T16:43:11.690Z,-1.20
2019-01-25T16:49:14.978Z,-1.20
2019-01-25T16:55:17.278Z,-1.30
2019-01-25T17:01:19.494Z,-1.30
2019-01-25T17:07:23.658Z,-1.50
2019-01-25T17:13:25.958Z,-1.50
2019-01-25T17:19:28.282Z,-1.50
2019-01-25T17:25:30.555Z,-1.40
2019-01-25T17:31:33.785Z,-1.40
2019-01-25T17:37:36.004Z,-1.50
2019-01-25T17:43:38.271Z,-1.40
2019-01-25T17:49:41.732Z,-1.40
2019-01-25T17:55:44.035Z,-1.50
2019-01-25T18:01:48.262Z,-1.60
2019-01-25T18:07:50.700Z,-1.70
2019-01-25T18:13:52.980Z,-1.80
2019-01-25T18:19:55.336Z,-1.80
2019-01-25T18:26:11.457Z,-1.90
2019-01-25T18:32:13.752Z,-2.00
2019-01-25T18:38:16.052Z,-2.00
2019-01-25T18:44:18.424Z,-1.90
2019-01-25T18:50:20.835Z,-1.90
2019-01-25T18:56:24.527Z,-1.90
2019-01-25T19:02:26.850Z,-1.80
2019-01-25T19:08:29.265Z,-1.90
2019-01-25T19:14:31.403Z,-1.90
2019-01-25T19:20:34.069Z,-1.90
2019-01-25T19:26:36.165Z,-1.90
2019-01-25T19:32:38.306Z,-1.90
2019-01-25T19:38:40.546Z,-1.80
2019-01-25T19:44:43.101Z,-1.90
2019-01-25T19:50:45.474Z,-2.00
2019-01-25T19:56:48.617Z,-2.00
2019-01-25T20:02:50.855Z,-2.00
2019-01-25T20:08:53.063Z,-2.10
2019-01-25T20:14:55.307Z,-2.10
2019-01-25T20:20:57.504Z,-2.10
2019-01-25T20:26:59.719Z,-2.10
2019-01-25T20:33:02.298Z,-2.10
2019-01-25T20:39:06.688Z,-2.20
2019-01-25T20:45:12.309Z,-2.20
2019-01-25T20:51:15.679Z,-2.10
2019-01-25T20:57:18.522Z,-2.20
2019-01-25T21:03:20.787Z,-2.30
2019-01-25T21:09:23.191Z,-2.30
2019-01-25T21:15:25.860Z,-2.40
2019-01-25T21:21:28.288Z,-2.50
2019-01-25T21:27:30.554Z,-2.40
2019-01-25T21:33:32.730Z,-2.40
2019-01-25T21:39:35.724Z,-2.40
2019-01-25T21:45:43.234Z,-2.30
2019-01-25T21:51:42.882Z,-2.30
2019-01-25T21:57:44.968Z,-2.30
2019-01-25T22:03:47.283Z,-2.20
2019-01-25T22:09:49.605Z,-2.20
2019-01-25T22:15:52.014Z,-2.30
2019-01-25T22:21:54.387Z,-2.30
2019-01-25T22:27:57.686Z,-2.30
2019-01-25T22:33:59.994Z,-2.30
2019-01-25T22:40:04.143Z,-2.60
2019-01-25T22:46:06.446Z,-2.50
2019-01-25T22:52:09.378Z,-2.50
2019-01-25T22:58:11.643Z,-2.70
2019-01-25T23:04:39.981Z,-2.70
2019-01-25T23:10:42.116Z,-2.80
2019-01-25T23:16:44.600Z,-3.10
2019-01-25T23:22:47.006Z,-3.30
2019-01-25T23:28:51.478Z,-3.20
2019-01-25T23:34:53.627Z,-3.20
2019-01-25T23:40:55.898Z,-3.20
2019-01-25T23:46:58.052Z,-3.20
2019-01-25T23:53:00.381Z,-3.40
2019-01-25T23:59:02.618Z,-3.60
